createdAt,value
2023-03-27T00:00:23.122Z,41.50
2023-03-27T00:03:15.016Z,41.70
2023-03-27T00:05:44.386Z,41.70
2023-03-27T00:08:14.528Z,41.70
2023-03-27T00:10:43.916Z,41.60
2023-03-27T00:13:14.527Z,41.60
2023-03-27T00:15:43.518Z,41.60
2023-03-27T00:18:13.380Z,41.60
2023-03-27T00:20:42.597Z,41.70
2023-03-27T00:23:11.599Z,41.60
2023-03-27T00:25:41.571Z,41.50
2023-03-27T00:28:10.602Z,41.50
2023-03-27T00:30:41.336Z,41.50
2023-03-27T00:33:12.746Z,41.50
2023-03-27T00:40:17.685Z,41.50
2023-03-27T00:42:48.196Z,41.50
2023-03-27T00:45:19.913Z,41.40
2023-03-27T00:47:56.673Z,41.50
2023-03-27T00:50:30.025Z,41.60
2023-03-27T00:53:06.287Z,41.50
2023-03-27T00:55:40.558Z,41.30
2023-03-27T00:58:18.591Z,41.40
2023-03-27T01:00:52.250Z,41.40
2023-03-27T01:03:25.554Z,41.50
2023-03-27T01:05:57.064Z,41.10
2023-03-27T01:08:30.839Z,41.00
2023-03-27T01:11:16.098Z,41.10
2023-03-27T01:14:11.441Z,41.10
2023-03-27T01:16:53.174Z,40.90
2023-03-27T01:20:01.066Z,41.10
2023-03-27T01:23:11.317Z,41.10
2023-03-27T01:26:35.547Z,41.30
2023-03-27T01:29:18.252Z,41.10
2023-03-27T01:32:15.013Z,41.10
2023-03-27T01:35:33.289Z,41.00
2023-03-27T01:38:30.523Z,41.10
2023-03-27T01:41:11.019Z,41.00
2023-03-27T01:43:50.437Z,41.20
2023-03-27T01:46:26.831Z,40.90
2023-03-27T01:49:02.284Z,41.10
2023-03-27T01:51:39.568Z,41.10
2023-03-27T01:54:20.349Z,41.00
2023-03-27T01:56:56.683Z,41.30
2023-03-27T01:59:29.603Z,41.10
2023-03-27T02:02:07.771Z,41.20
2023-03-27T02:04:46.948Z,41.10
2023-03-27T02:07:24.171Z,41.00
2023-03-27T02:10:00.357Z,41.00
2023-03-27T02:12:35.059Z,40.90
2023-03-27T02:15:23.877Z,40.90
2023-03-27T02:18:05.004Z,40.90
2023-03-27T02:20:35.635Z,41.00
2023-03-27T02:23:07.744Z,41.00
2023-03-27T02:25:39.988Z,40.90
2023-03-27T02:28:42.380Z,41.10
2023-03-27T02:31:35.443Z,41.00
2023-03-27T02:34:46.392Z,41.10
2023-03-27T02:37:32.433Z,41.00
2023-03-27T02:40:40.387Z,40.90
2023-03-27T02:43:49.637Z,40.90
2023-03-27T02:46:34.558Z,41.20
2023-03-27T02:49:10.067Z,41.00
2023-03-27T02:51:45.997Z,40.70
2023-03-27T02:54:20.380Z,40.90
2023-03-27T02:56:56.240Z,40.80
2023-03-27T02:59:40.470Z,40.90
2023-03-27T03:02:19.916Z,41.10
2023-03-27T03:05:05.127Z,41.10
2023-03-27T03:07:40.326Z,41.00
2023-03-27T03:10:12.544Z,41.00
2023-03-27T03:12:42.543Z,40.80
2023-03-27T03:15:13.628Z,41.00
2023-03-27T03:17:42.820Z,40.80
2023-03-27T03:20:16.803Z,40.90
2023-03-27T03:22:46.082Z,41.00
2023-03-27T03:25:19.915Z,40.90
2023-03-27T03:27:49.157Z,41.00
2023-03-27T03:30:19.743Z,41.20
2023-03-27T03:33:00.166Z,41.10
2023-03-27T03:35:29.222Z,41.10
2023-03-27T03:37:59.434Z,41.00
2023-03-27T03:40:29.572Z,41.10
2023-03-27T03:43:01.176Z,41.10
2023-03-27T03:45:33.292Z,41.00
2023-03-27T03:48:02.620Z,41.20
2023-03-27T03:50:31.824Z,41.40
2023-03-27T03:53:00.863Z,41.30
2023-03-27T03:55:29.620Z,41.70
2023-03-27T03:57:59.257Z,41.70
2023-03-27T04:05:15.549Z,41.70
2023-03-27T04:07:45.682Z,41.90
2023-03-27T04:10:33.126Z,42.00
2023-03-27T04:13:06.408Z,42.30
2023-03-27T04:15:39.858Z,42.30
2023-03-27T04:18:24.767Z,42.40
2023-03-27T04:20:58.659Z,42.50
2023-03-27T04:23:30.395Z,42.50
2023-03-27T04:26:02.057Z,42.40
2023-03-27T04:28:54.287Z,42.50
2023-03-27T04:31:46.571Z,42.50
2023-03-27T04:34:50.352Z,42.30
2023-03-27T04:37:43.068Z,42.40
2023-03-27T04:40:27.419Z,42.60
2023-03-27T04:42:56.585Z,42.50
2023-03-27T04:45:25.798Z,42.40
2023-03-27T04:47:55.733Z,42.30
2023-03-27T04:50:24.600Z,42.20
2023-03-27T04:52:58.733Z,42.00
2023-03-27T04:55:30.654Z,42.00
2023-03-27T04:58:00.224Z,42.20
2023-03-27T05:05:18.495Z,42.20
2023-03-27T05:07:48.683Z,42.40
2023-03-27T05:10:23.943Z,42.50
2023-03-27T05:12:57.105Z,42.60
2023-03-27T05:15:27.818Z,42.70
2023-03-27T05:17:57.843Z,42.70
2023-03-27T05:20:28.685Z,42.70
2023-03-27T05:22:58.095Z,42.70
2023-03-27T05:25:33.997Z,42.90
2023-03-27T05:28:06.290Z,43.00
2023-03-27T05:30:37.985Z,42.90
2023-03-27T05:33:33.014Z,42.90
2023-03-27T05:36:03.211Z,42.80
2023-03-27T05:38:33.201Z,42.90
2023-03-27T05:41:07.394Z,42.90
2023-03-27T05:48:14.556Z,42.70
2023-03-27T05:50:44.069Z,42.80
2023-03-27T05:53:27.930Z,42.90
2023-03-27T05:56:33.539Z,42.70
2023-03-27T05:59:05.001Z,42.80
2023-03-27T06:01:36.615Z,43.00
2023-03-27T06:08:39.085Z,43.00
2023-03-27T06:11:12.005Z,43.00
2023-03-27T06:13:49.539Z,43.00
2023-03-27T06:16:23.222Z,42.70
2023-03-27T06:19:07.456Z,42.50
2023-03-27T06:21:46.177Z,42.50
2023-03-27T06:28:46.231Z,42.50
2023-03-27T06:31:17.657Z,42.50
2023-03-27T06:34:05.173Z,42.60
2023-03-27T06:36:43.938Z,42.70
2023-03-27T06:39:14.416Z,42.30
2023-03-27T06:41:50.083Z,42.30
2023-03-27T06:44:26.981Z,42.30
2023-03-27T06:47:17.564Z,42.00
2023-03-27T06:50:06.689Z,42.20
2023-03-27T06:52:35.616Z,41.80
2023-03-27T06:55:22.419Z,41.90
2023-03-27T06:57:57.694Z,41.70
2023-03-27T07:00:30.071Z,41.40
2023-03-27T07:03:19.998Z,41.30
2023-03-27T07:06:26.981Z,41.00
2023-03-27T07:09:01.854Z,41.10
2023-03-27T07:11:32.361Z,41.20
2023-03-27T07:14:08.612Z,41.70
2023-03-27T07:16:37.759Z,41.20
2023-03-27T07:19:08.148Z,40.90
2023-03-27T07:21:41.647Z,40.80
2023-03-27T07:24:13.083Z,40.70
2023-03-27T07:26:42.174Z,40.20
2023-03-27T07:29:34.157Z,39.90
2023-03-27T07:32:07.097Z,40.10
2023-03-27T07:34:46.249Z,40.00
2023-03-27T07:37:55.503Z,40.00
2023-03-27T07:40:46.212Z,39.00
2023-03-27T07:43:36.478Z,38.30
2023-03-27T07:46:06.613Z,38.10
2023-03-27T07:48:36.119Z,38.10
2023-03-27T07:51:13.832Z,38.40
2023-03-27T07:53:44.452Z,38.30
2023-03-27T07:56:23.562Z,38.10
2023-03-27T07:59:07.782Z,37.80
2023-03-27T08:01:36.707Z,38.20
2023-03-27T08:04:06.800Z,38.10
2023-03-27T08:06:38.710Z,37.90
2023-03-27T08:09:14.596Z,38.00
2023-03-27T08:11:44.427Z,37.40
2023-03-27T08:14:13.944Z,37.00
2023-03-27T08:16:43.295Z,37.30
2023-03-27T08:19:14.162Z,36.80
2023-03-27T08:21:49.453Z,36.90
2023-03-27T08:24:18.621Z,36.60
2023-03-27T08:27:06.315Z,36.80
2023-03-27T08:29:41.690Z,36.60
2023-03-27T08:32:11.921Z,36.70
2023-03-27T08:34:44.350Z,36.50
2023-03-27T08:37:15.159Z,36.20
2023-03-27T08:40:03.506Z,36.50
2023-03-27T08:42:39.771Z,36.40
2023-03-27T08:45:23.642Z,36.20
2023-03-27T08:48:03.042Z,35.90
2023-03-27T08:50:40.804Z,35.90
2023-03-27T08:53:34.147Z,35.80
2023-03-27T08:56:07.083Z,35.80
2023-03-27T08:58:41.613Z,35.80
2023-03-27T09:01:41.259Z,36.00
2023-03-27T09:04:32.969Z,36.10
2023-03-27T09:11:55.985Z,35.80
2023-03-27T09:14:37.385Z,36.20
2023-03-27T09:17:17.410Z,35.70
2023-03-27T09:19:55.604Z,36.10
2023-03-27T09:22:36.247Z,36.00
2023-03-27T09:25:28.351Z,35.80
2023-03-27T09:28:03.512Z,35.50
2023-03-27T09:30:46.275Z,35.30
2023-03-27T09:33:27.061Z,35.60
2023-03-27T09:36:02.941Z,35.10
2023-03-27T09:38:38.959Z,35.60
2023-03-27T09:41:21.624Z,35.60
2023-03-27T09:44:03.632Z,35.30
2023-03-27T09:46:39.487Z,34.80
2023-03-27T09:49:15.145Z,34.90
2023-03-27T09:51:52.034Z,34.70
2023-03-27T09:54:53.809Z,34.80
2023-03-27T09:57:37.438Z,34.90
2023-03-27T10:00:30.892Z,34.70
2023-03-27T10:03:08.010Z,34.50
2023-03-27T10:10:26.690Z,34.30
2023-03-27T10:13:24.446Z,33.70
2023-03-27T10:16:03.055Z,33.70
2023-03-27T10:18:46.692Z,33.80
2023-03-27T10:21:28.013Z,34.00
2023-03-27T10:24:05.283Z,34.20
2023-03-27T10:26:54.568Z,34.10
2023-03-27T10:34:08.240Z,33.50
2023-03-27T10:38:35.518Z,33.70
2023-03-27T10:41:32.596Z,34.10
2023-03-27T10:44:05.807Z,34.20
2023-03-27T10:46:41.195Z,33.80
2023-03-27T10:49:28.859Z,33.30
2023-03-27T10:52:13.406Z,33.40
2023-03-27T10:55:18.810Z,32.70
2023-03-27T10:57:57.785Z,32.80
2023-03-27T11:00:41.043Z,32.90
2023-03-27T11:03:21.938Z,32.60
2023-03-27T11:06:07.787Z,33.00
2023-03-27T11:08:55.564Z,33.00
2023-03-27T11:11:35.455Z,33.10
2023-03-27T11:14:12.688Z,31.90
2023-03-27T11:16:47.970Z,31.90
2023-03-27T11:19:43.029Z,31.30
2023-03-27T11:22:39.662Z,31.80
2023-03-27T11:25:25.288Z,31.50
2023-03-27T11:28:06.874Z,31.40
2023-03-27T11:30:44.715Z,31.40
2023-03-27T11:38:42.376Z,31.50
2023-03-27T11:41:15.475Z,30.80
2023-03-27T11:43:45.322Z,30.40
2023-03-27T11:47:25.045Z,30.80
2023-03-27T11:50:17.739Z,31.40
2023-03-27T11:53:13.748Z,30.80
2023-03-27T11:56:29.151Z,31.00
2023-03-27T11:59:42.909Z,31.10
2023-03-27T12:02:58.402Z,30.40
2023-03-27T12:05:47.130Z,29.90
2023-03-27T12:08:32.622Z,29.80
2023-03-27T12:11:06.569Z,29.90
2023-03-27T12:14:01.845Z,30.20
2023-03-27T12:17:11.656Z,30.60
2023-03-27T12:20:33.562Z,30.50
2023-03-27T12:23:32.349Z,30.70
2023-03-27T12:26:53.203Z,31.00
2023-03-27T12:30:00.578Z,31.00
2023-03-27T12:33:00.949Z,30.50
2023-03-27T12:35:39.133Z,30.40
2023-03-27T12:38:17.439Z,30.40
2023-03-27T12:41:02.885Z,30.90
2023-03-27T12:43:48.631Z,30.90
2023-03-27T12:46:39.055Z,31.20
2023-03-27T12:49:48.101Z,30.40
2023-03-27T12:52:28.619Z,30.50
2023-03-27T12:55:33.189Z,30.40
2023-03-27T12:58:05.908Z,30.40
2023-03-27T13:01:00.859Z,31.00
2023-03-27T13:04:32.061Z,30.60
2023-03-27T13:07:12.856Z,30.70
2023-03-27T13:10:22.324Z,30.70
2023-03-27T13:13:20.749Z,30.60
2023-03-27T13:16:43.998Z,31.30
2023-03-27T13:19:54.031Z,31.50
2023-03-27T13:27:22.148Z,30.90
2023-03-27T13:29:54.194Z,31.30
2023-03-27T13:32:37.009Z,31.30
2023-03-27T13:35:40.781Z,30.90
2023-03-27T13:38:13.590Z,31.20
2023-03-27T13:41:51.879Z,30.80
2023-03-27T13:45:02.017Z,30.90
2023-03-27T13:48:18.408Z,31.30
2023-03-27T13:56:12.633Z,32.00
2023-03-27T13:59:52.667Z,32.20
2023-03-27T14:03:13.679Z,32.20
2023-03-27T14:06:40.450Z,32.10
2023-03-27T14:09:26.717Z,31.80
2023-03-27T14:12:31.867Z,31.90
2023-03-27T14:16:04.219Z,31.90
2023-03-27T14:19:02.600Z,31.60
2023-03-27T14:21:50.940Z,31.80
2023-03-27T14:26:04.105Z,32.00
2023-03-27T14:28:51.662Z,32.40
2023-03-27T14:31:35.513Z,32.60
2023-03-27T14:34:22.489Z,32.80
2023-03-27T14:36:52.650Z,33.30
2023-03-27T14:39:39.395Z,33.70
2023-03-27T14:42:17.844Z,33.20
2023-03-27T14:44:53.863Z,33.40
2023-03-27T14:47:24.510Z,33.70
2023-03-27T14:49:58.942Z,34.00
2023-03-27T14:52:56.009Z,33.70
2023-03-27T14:55:36.120Z,33.10
2023-03-27T14:58:26.329Z,33.30
2023-03-27T15:01:02.553Z,33.40
2023-03-27T15:03:39.322Z,34.50
2023-03-27T15:06:17.009Z,34.10
2023-03-27T15:08:55.864Z,34.10
2023-03-27T15:11:48.777Z,34.10
2023-03-27T15:14:28.920Z,34.10
2023-03-27T15:21:45.173Z,34.60
2023-03-27T15:24:21.864Z,34.60
2023-03-27T15:26:53.512Z,34.50
2023-03-27T15:29:39.305Z,34.90
2023-03-27T15:32:14.912Z,34.70
2023-03-27T15:34:47.701Z,34.70
2023-03-27T15:37:25.497Z,34.50
2023-03-27T15:40:07.292Z,34.30
2023-03-27T15:42:47.862Z,34.30
2023-03-27T15:45:18.555Z,34.30
2023-03-27T15:48:02.968Z,34.50
2023-03-27T15:50:31.748Z,34.80
2023-03-27T15:53:03.263Z,34.80
2023-03-27T15:55:40.885Z,34.70
2023-03-27T15:58:26.449Z,34.70
2023-03-27T16:01:01.593Z,34.40
2023-03-27T16:03:35.469Z,34.40
2023-03-27T16:06:05.325Z,34.10
2023-03-27T16:08:41.027Z,34.10
2023-03-27T16:11:13.195Z,34.30
2023-03-27T16:13:56.862Z,34.10
2023-03-27T16:16:28.223Z,34.00
2023-03-27T16:19:02.694Z,33.90
2023-03-27T16:21:37.213Z,33.50
2023-03-27T16:28:39.297Z,33.50
2023-03-27T16:31:13.097Z,33.50
2023-03-27T16:33:45.257Z,33.50
2023-03-27T16:36:16.150Z,33.40
2023-03-27T16:38:45.689Z,33.70
2023-03-27T16:41:15.527Z,33.50
2023-03-27T16:43:46.524Z,33.20
2023-03-27T16:46:22.425Z,33.20
2023-03-27T16:53:23.710Z,33.00
2023-03-27T16:55:55.429Z,32.90
2023-03-27T16:58:24.562Z,33.10
2023-03-27T17:00:54.747Z,33.00
2023-03-27T17:03:23.807Z,32.90
2023-03-27T17:05:52.649Z,32.90
2023-03-27T17:08:21.697Z,32.90
2023-03-27T17:10:50.730Z,33.10
2023-03-27T17:13:19.752Z,33.10
2023-03-27T17:15:51.249Z,33.20
2023-03-27T17:18:21.873Z,33.30
2023-03-27T17:20:50.659Z,33.10
2023-03-27T17:23:19.973Z,33.40
2023-03-27T17:30:36.686Z,33.30
2023-03-27T17:33:07.228Z,33.10
2023-03-27T17:35:40.037Z,33.30
2023-03-27T17:38:10.315Z,33.50
2023-03-27T17:40:41.868Z,33.40
2023-03-27T17:47:42.064Z,33.60
2023-03-27T17:59:18.444Z,33.40
2023-03-27T18:06:19.406Z,33.00
2023-03-27T18:08:48.730Z,33.50
2023-03-27T18:11:18.163Z,33.50
2023-03-27T18:13:51.417Z,32.90
2023-03-27T18:16:23.174Z,32.80
2023-03-27T18:18:54.917Z,32.50
2023-03-27T18:21:24.247Z,32.40
2023-03-27T18:23:53.883Z,32.00
2023-03-27T18:26:23.725Z,32.20
2023-03-27T18:28:53.430Z,31.80
2023-03-27T18:31:24.023Z,32.00
2023-03-27T18:33:53.136Z,31.70
2023-03-27T18:36:22.305Z,31.00
2023-03-27T18:38:52.088Z,30.70
2023-03-27T18:41:21.181Z,31.10
2023-03-27T18:43:49.955Z,31.10
2023-03-27T18:46:19.421Z,31.10
2023-03-27T18:48:49.973Z,31.20
2023-03-27T18:51:19.475Z,30.90
2023-03-27T18:53:48.257Z,31.10
2023-03-27T19:00:52.934Z,31.20
2023-03-27T19:03:24.424Z,31.10
2023-03-27T19:05:55.168Z,31.50
2023-03-27T19:08:24.001Z,31.00
2023-03-27T19:10:56.441Z,30.60
2023-03-27T19:13:45.515Z,30.60
2023-03-27T19:21:17.087Z,30.00
2023-03-27T19:24:04.362Z,30.00
2023-03-27T19:26:43.897Z,30.00
2023-03-27T19:29:13.759Z,29.70
2023-03-27T19:31:42.958Z,29.40
2023-03-27T19:34:11.906Z,28.90
2023-03-27T19:36:42.918Z,29.20
2023-03-27T19:39:11.704Z,29.10
2023-03-27T19:41:41.493Z,29.50
2023-03-27T19:44:10.372Z,29.20
2023-03-27T19:46:39.650Z,29.10
2023-03-27T19:49:09.063Z,28.50
2023-03-27T19:51:47.211Z,28.70
2023-03-27T19:54:17.645Z,28.80
2023-03-27T20:01:20.194Z,28.80
2023-03-27T20:03:49.170Z,28.80
2023-03-27T20:06:19.600Z,28.80
2023-03-27T20:08:49.881Z,28.90
2023-03-27T20:11:20.385Z,28.90
2023-03-27T20:13:56.641Z,28.90
2023-03-27T20:16:28.572Z,29.10
2023-03-27T20:19:04.583Z,29.00
2023-03-27T20:21:37.756Z,29.10
2023-03-27T20:28:47.044Z,29.20
2023-03-27T20:31:16.099Z,29.00
2023-03-27T20:33:45.586Z,28.90
2023-03-27T20:36:16.650Z,29.00
2023-03-27T20:38:48.729Z,28.90
2023-03-27T20:41:17.727Z,28.90
2023-03-27T20:43:48.933Z,29.10
2023-03-27T20:46:18.124Z,29.20
2023-03-27T20:48:54.083Z,29.30
2023-03-27T20:51:25.169Z,29.20
2023-03-27T20:53:58.250Z,29.30
2023-03-27T21:05:38.339Z,29.50
2023-03-27T21:08:07.974Z,29.60
2023-03-27T21:10:37.250Z,29.80
2023-03-27T21:13:06.791Z,29.70
2023-03-27T21:15:36.293Z,29.80
2023-03-27T21:18:05.516Z,29.90
2023-03-27T21:20:36.079Z,29.90
2023-03-27T21:23:04.904Z,30.00
2023-03-27T21:25:36.152Z,30.00
2023-03-27T21:28:08.719Z,30.10
2023-03-27T21:30:46.285Z,30.20
2023-03-27T21:33:17.647Z,30.20
2023-03-27T21:35:50.242Z,30.30
2023-03-27T21:38:19.543Z,30.40
2023-03-27T21:40:48.821Z,30.60
2023-03-27T21:43:17.839Z,30.40
2023-03-27T21:45:49.811Z,30.50
2023-03-27T21:48:19.077Z,30.60
2023-03-27T21:50:49.470Z,30.70
2023-03-27T21:53:18.397Z,30.80
2023-03-27T21:55:47.969Z,30.70
2023-03-27T21:58:16.778Z,30.90
2023-03-27T22:00:46.492Z,31.00
2023-03-27T22:03:16.229Z,31.00
2023-03-27T22:05:54.250Z,31.00
2023-03-27T22:08:31.446Z,31.10
2023-03-27T22:15:32.185Z,31.00
2023-03-27T22:18:01.262Z,31.20
2023-03-27T22:20:30.771Z,31.20
2023-03-27T22:22:59.571Z,31.10
2023-03-27T22:25:29.909Z,31.20
2023-03-27T22:28:00.028Z,31.40
2023-03-27T22:30:30.918Z,31.50
2023-03-27T22:32:59.728Z,31.50
2023-03-27T22:35:28.808Z,31.60
2023-03-27T22:37:57.532Z,31.70
2023-03-27T22:40:26.517Z,31.80
2023-03-27T22:42:57.381Z,31.90
2023-03-27T22:45:26.443Z,32.00
2023-03-27T22:47:55.431Z,32.10
2023-03-27T22:50:24.427Z,31.90
2023-03-27T22:52:53.166Z,32.00
2023-03-27T22:55:22.225Z,32.00
2023-03-27T22:57:50.934Z,32.40
2023-03-27T23:00:22.460Z,32.70
2023-03-27T23:02:51.253Z,32.30
2023-03-27T23:05:20.553Z,32.30
2023-03-27T23:07:49.387Z,32.00
2023-03-27T23:10:18.553Z,32.00
2023-03-27T23:12:47.258Z,32.20
2023-03-27T23:15:16.389Z,32.00
2023-03-27T23:18:00.719Z,32.20
2023-03-27T23:20:31.205Z,32.40
2023-03-27T23:22:59.960Z,32.50
2023-03-27T23:25:28.999Z,32.40
2023-03-27T23:27:58.231Z,32.50
2023-03-27T23:30:27.289Z,32.30
2023-03-27T23:32:56.632Z,32.40
2023-03-27T23:35:27.070Z,32.40
2023-03-27T23:37:55.899Z,32.60
2023-03-27T23:40:24.970Z,32.60
2023-03-27T23:42:53.729Z,32.80
2023-03-27T23:45:22.920Z,32.90
2023-03-27T23:47:51.608Z,32.90
2023-03-27T23:50:20.637Z,32.90
2023-03-27T23:52:50.812Z,33.00
2023-03-27T23:55:19.818Z,33.10
2023-03-27T23:57:48.505Z,33.10
